Time;durP1;ratioP1;P1;durP2;ratioP2;P2;SDS_P1;SDS_P2;PMS_P1;PMS_P2;Temp;Humidity;BMP_temperature;BMP_pressure;BME280_temperature;BME280_humidity;BME280_pressure;Samples;Min_cycle;Max_cycle;Signal;HPM_P1;HPM_P2
2023/05/14 00:00:30;;;;;;;17.93;10.97;;;;;;;;;;4973252;28;20031;-78
2023/05/14 00:02:56;;;;;;;17.23;12.10;;;;;;;;;;4962179;28;20055;-79
2023/05/14 00:05:22;;;;;;;17.00;12.57;;;;;;;;;;4963417;28;20407;-78
2023/05/14 00:07:48;;;;;;;20.20;12.57;;;;;;;;;;4959111;28;20042;-78
2023/05/14 00:10:14;;;;;;;21.33;13.57;;;;;;;;;;4976367;28;20034;-79
2023/05/14 00:12:40;;;;;;;17.70;12.80;;;;;;;;;;4961146;28;20031;-79
2023/05/14 00:15:06;;;;;;;17.93;12.53;;;;;;;;;;4965960;28;20035;-79
2023/05/14 00:17:32;;;;;;;18.10;12.33;;;;;;;;;;4966063;28;20113;-79
2023/05/14 00:19:58;;;;;;;16.00;12.23;;;;;;;;;;4960149;28;20058;-79
2023/05/14 00:22:24;;;;;;;15.50;12.33;;;;;;;;;;4975540;28;20038;-79
2023/05/14 00:24:50;;;;;;;20.47;14.00;;;;;;;;;;4959953;28;20444;-78
2023/05/14 00:27:16;;;;;;;19.57;13.57;;;;;;;;;;4970953;28;20032;-79
2023/05/14 00:29:44;;;;;;;19.77;12.73;;;;;;;;;;4961582;28;20035;-79
2023/05/14 00:32:10;;;;;;;19.93;13.60;;;;;;;;;;4974916;28;20121;-78
2023/05/14 00:34:36;;;;;;;18.97;13.90;;;;;;;;;;4961419;28;20027;-78
2023/05/14 00:37:04;;;;;;;18.13;12.77;;;;;;;;;;4961581;28;20113;-79
2023/05/14 00:39:30;;;;;;;18.77;13.90;;;;;;;;;;4974291;28;20027;-79
2023/05/14 00:41:56;;;;;;;16.47;13.10;;;;;;;;;;4965098;28;20067;-79
2023/05/14 00:44:22;;;;;;;17.30;12.93;;;;;;;;;;4971311;28;20122;-79
2023/05/14 00:46:48;;;;;;;20.90;13.57;;;;;;;;;;4973167;28;20508;-78
2023/05/14 00:49:15;;;;;;;21.70;13.50;;;;;;;;;;4956222;28;20082;-78
2023/05/14 00:51:45;;;;;;;16.77;13.77;;;;;;;;;;4960579;28;20114;-79
2023/05/14 00:54:12;;;;;;;16.97;14.47;;;;;;;;;;4958143;28;20229;-78
2023/05/14 00:56:38;;;;;;;19.97;13.97;;;;;;;;;;4973087;28;20028;-79
2023/05/14 00:59:04;;;;;;;21.83;14.40;;;;;;;;;;4957857;28;20046;-79
2023/05/14 01:01:30;;;;;;;21.80;14.77;;;;;;;;;;4971552;28;20443;-79
2023/05/14 01:03:57;;;;;;;21.27;13.80;;;;;;;;;;4957825;28;20078;-79
2023/05/14 01:06:31;;;;;;;20.77;14.80;;;;;;;;;;4960181;28;20445;-79
2023/05/14 01:09:03;;;;;;;20.20;14.40;;;;;;;;;;4955416;28;20086;-79
2023/05/14 01:11:31;;;;;;;19.27;15.40;;;;;;;;;;4973033;28;20457;-78
2023/05/14 01:13:57;;;;;;;19.20;15.50;;;;;;;;;;4958795;28;20039;-79
2023/05/14 01:16:27;;;;;;;21.97;14.67;;;;;;;;;;4958544;28;20036;-79
2023/05/14 01:18:56;;;;;;;18.97;14.07;;;;;;;;;;4971478;28;20608;-79
2023/05/14 01:21:31;;;;;;;17.07;14.37;;;;;;;;;;4957230;28;20045;-80
2023/05/14 01:23:57;;;;;;;21.13;14.10;;;;;;;;;;4956494;28;20035;-79
2023/05/14 01:26:23;;;;;;;18.87;13.63;;;;;;;;;;4975278;28;20035;-79
2023/05/14 01:28:52;;;;;;;17.13;13.00;;;;;;;;;;4971592;28;20551;-78
2023/05/14 01:31:23;;;;;;;15.93;12.90;;;;;;;;;;4973432;28;20969;-77
2023/05/14 01:33:50;;;;;;;17.20;13.83;;;;;;;;;;4959477;28;20039;-79
2023/05/14 01:36:16;;;;;;;26.53;14.93;;;;;;;;;;4962750;28;20034;-79
2023/05/14 01:38:44;;;;;;;18.57;15.00;;;;;;;;;;4970631;28;20031;-79
2023/05/14 01:41:11;;;;;;;19.30;14.83;;;;;;;;;;4959834;28;20126;-78
2023/05/14 01:43:37;;;;;;;21.43;16.23;;;;;;;;;;4958005;28;20158;-79
2023/05/14 01:46:03;;;;;;;23.27;16.30;;;;;;;;;;4960252;28;20027;-79
2023/05/14 01:48:29;;;;;;;24.17;15.83;;;;;;;;;;4963791;28;20030;-79
2023/05/14 01:50:55;;;;;;;25.60;16.20;;;;;;;;;;4960545;28;20049;-78
2023/05/14 01:53:21;;;;;;;21.17;16.10;;;;;;;;;;4976316;28;20027;-79
2023/05/14 01:55:50;;;;;;;23.00;16.57;;;;;;;;;;4974996;28;20031;-79
2023/05/14 01:58:16;;;;;;;19.30;16.37;;;;;;;;;;4968339;28;20039;-78
2023/05/14 02:00:42;;;;;;;21.17;16.00;;;;;;;;;;4961267;28;20043;-80
2023/05/14 02:03:08;;;;;;;20.50;17.13;;;;;;;;;;4976277;28;20031;-79
2023/05/14 02:05:34;;;;;;;23.37;16.70;;;;;;;;;;4964460;28;20105;-79
2023/05/14 02:07:59;;;;;;;21.37;16.73;;;;;;;;;;4956552;28;20027;-79
2023/05/14 02:10:28;;;;;;;21.60;15.70;;;;;;;;;;4953481;28;20035;-79
2023/05/14 02:12:55;;;;;;;20.50;16.37;;;;;;;;;;4975258;28;20477;-79
2023/05/14 02:15:21;;;;;;;29.87;18.83;;;;;;;;;;4975952;28;20089;-79
2023/05/14 02:17:47;;;;;;;25.90;19.03;;;;;;;;;;4961096;28;20039;-78
2023/05/14 02:20:13;;;;;;;24.83;19.70;;;;;;;;;;4963846;28;20126;-79
2023/05/14 02:22:41;;;;;;;28.73;19.13;;;;;;;;;;4958113;28;20046;-79
2023/05/14 02:25:07;;;;;;;23.37;18.17;;;;;;;;;;4974020;28;20035;-79
2023/05/14 02:27:33;;;;;;;25.87;18.83;;;;;;;;;;4964550;28;20023;-78
2023/05/14 02:30:02;;;;;;;30.97;19.87;;;;;;;;;;4969145;28;20087;-79
2023/05/14 02:32:28;;;;;;;27.03;18.97;;;;;;;;;;4961227;28;20062;-78
2023/05/14 02:34:54;;;;;;;27.60;19.10;;;;;;;;;;4960789;28;20867;-79
2023/05/14 02:37:20;;;;;;;33.37;20.17;;;;;;;;;;4973490;28;20093;-78
2023/05/14 02:39:46;;;;;;;28.47;21.53;;;;;;;;;;4973414;28;20077;-79
2023/05/14 02:42:11;;;;;;;30.67;21.77;;;;;;;;;;4972956;28;20055;-79
2023/05/14 02:44:37;;;;;;;27.60;20.60;;;;;;;;;;4969574;28;21680;-79
2023/05/14 02:47:04;;;;;;;28.73;20.93;;;;;;;;;;4967904;28;20038;-78
2023/05/14 02:49:29;;;;;;;26.83;19.97;;;;;;;;;;4959156;28;20039;-79
2023/05/14 02:51:56;;;;;;;28.97;20.00;;;;;;;;;;4961509;28;20031;-79
2023/05/14 02:54:22;;;;;;;30.10;20.60;;;;;;;;;;4972248;28;20110;-78
2023/05/14 02:56:48;;;;;;;27.10;20.37;;;;;;;;;;4975281;28;20129;-79
2023/05/14 02:59:14;;;;;;;27.87;20.73;;;;;;;;;;4972623;28;20031;-79
2023/05/14 03:01:40;;;;;;;27.70;20.53;;;;;;;;;;4978575;28;20054;-78
2023/05/14 03:04:06;;;;;;;24.00;18.97;;;;;;;;;;4974129;28;20799;-78
2023/05/14 03:06:32;;;;;;;23.53;18.77;;;;;;;;;;4958148;28;20041;-79
2023/05/14 03:08:58;;;;;;;24.23;17.97;;;;;;;;;;4963203;28;20118;-78
2023/05/14 03:11:24;;;;;;;23.13;17.07;;;;;;;;;;4970934;28;20035;-79
2023/05/14 03:13:50;;;;;;;25.37;16.93;;;;;;;;;;4959416;28;20110;-78
2023/05/14 03:16:18;;;;;;;21.63;18.30;;;;;;;;;;4957769;28;20882;-79
2023/05/14 03:18:44;;;;;;;22.90;18.03;;;;;;;;;;4971889;28;20031;-79
2023/05/14 03:21:10;;;;;;;25.50;19.10;;;;;;;;;;4969857;28;20906;-79
2023/05/14 03:23:36;;;;;;;24.67;19.17;;;;;;;;;;4972470;28;20082;-79
2023/05/14 03:26:03;;;;;;;25.60;19.03;;;;;;;;;;4963115;28;20126;-80
2023/05/14 03:28:29;;;;;;;22.70;18.10;;;;;;;;;;4960010;28;20403;-79
2023/05/14 03:30:55;;;;;;;26.07;19.80;;;;;;;;;;4963771;28;20094;-78
2023/05/14 03:33:22;;;;;;;25.87;19.23;;;;;;;;;;4975015;28;20054;-78
2023/05/14 03:35:48;;;;;;;27.33;18.53;;;;;;;;;;4965154;28;20046;-79
2023/05/14 03:38:14;;;;;;;25.23;19.03;;;;;;;;;;4973269;28;20030;-79
2023/05/14 03:40:40;;;;;;;26.37;18.97;;;;;;;;;;4960026;28;20086;-79
2023/05/14 03:43:06;;;;;;;22.67;17.97;;;;;;;;;;4962732;28;20068;-78
2023/05/14 03:45:32;;;;;;;22.17;17.80;;;;;;;;;;4977494;28;20058;-79
2023/05/14 03:47:58;;;;;;;24.87;17.37;;;;;;;;;;4969457;28;20031;-79
2023/05/14 03:50:24;;;;;;;21.57;17.43;;;;;;;;;;4959948;28;20042;-79
2023/05/14 03:52:53;;;;;;;25.00;18.80;;;;;;;;;;4976747;28;20091;-79
2023/05/14 03:55:20;;;;;;;22.87;18.70;;;;;;;;;;4960464;28;21608;-79
2023/05/14 03:57:46;;;;;;;23.37;18.23;;;;;;;;;;4971402;28;20039;-78
2023/05/14 04:00:12;;;;;;;26.73;19.23;;;;;;;;;;4966061;28;20049;-79
2023/05/14 04:02:38;;;;;;;27.33;19.97;;;;;;;;;;4978546;28;20050;-78
2023/05/14 04:05:04;;;;;;;25.63;17.83;;;;;;;;;;4973538;28;20111;-78
2023/05/14 04:07:32;;;;;;;20.90;17.13;;;;;;;;;;4975289;28;20039;-78
2023/05/14 04:09:59;;;;;;;26.43;19.03;;;;;;;;;;4976403;28;20032;-78
2023/05/14 04:12:25;;;;;;;20.87;17.70;;;;;;;;;;4965307;28;20030;-79
2023/05/14 04:14:51;;;;;;;27.17;19.13;;;;;;;;;;4975606;28;20037;-78
2023/05/14 04:17:18;;;;;;;27.00;18.50;;;;;;;;;;4976262;28;20035;-79
2023/05/14 04:19:44;;;;;;;22.33;17.17;;;;;;;;;;4975275;28;20060;-79
2023/05/14 04:22:12;;;;;;;23.03;18.67;;;;;;;;;;4973807;28;20043;-78
2023/05/14 04:24:39;;;;;;;20.83;17.07;;;;;;;;;;4970097;28;20452;-78
2023/05/14 04:27:07;;;;;;;22.10;16.90;;;;;;;;;;4973295;28;20027;-78
2023/05/14 04:29:35;;;;;;;22.77;18.17;;;;;;;;;;4964333;28;20472;-79
2023/05/14 04:32:04;;;;;;;24.83;17.80;;;;;;;;;;4960782;28;20882;-79
2023/05/14 04:34:30;;;;;;;27.27;17.97;;;;;;;;;;4970705;28;20027;-78
2023/05/14 04:36:56;;;;;;;23.37;18.87;;;;;;;;;;4960680;28;20041;-78
2023/05/14 04:39:22;;;;;;;24.47;18.87;;;;;;;;;;4977018;28;20122;-78
2023/05/14 04:41:48;;;;;;;27.80;19.70;;;;;;;;;;4961956;28;20114;-79
2023/05/14 04:44:14;;;;;;;23.83;18.23;;;;;;;;;;4959688;28;20883;-78
2023/05/14 04:46:40;;;;;;;25.97;19.73;;;;;;;;;;4967418;28;20086;-79
2023/05/14 04:49:08;;;;;;;22.43;18.70;;;;;;;;;;4970959;28;20027;-78
2023/05/14 04:51:34;;;;;;;27.93;20.10;;;;;;;;;;4957780;28;20126;-78
2023/05/14 04:54:00;;;;;;;26.53;20.00;;;;;;;;;;4968535;28;20498;-79
2023/05/14 04:56:26;;;;;;;28.43;18.93;;;;;;;;;;4967777;28;20051;-79
2023/05/14 04:58:52;;;;;;;20.00;17.23;;;;;;;;;;4976332;28;20090;-79
2023/05/14 05:01:18;;;;;;;19.93;17.10;;;;;;;;;;4959010;28;20038;-79
2023/05/14 05:03:44;;;;;;;24.10;18.10;;;;;;;;;;4962893;28;20039;-79
2023/05/14 05:06:13;;;;;;;25.60;20.00;;;;;;;;;;4971267;28;20053;-79
2023/05/14 05:08:39;;;;;;;29.97;19.43;;;;;;;;;;4954150;28;20031;-78
2023/05/14 05:11:08;;;;;;;26.83;21.07;;;;;;;;;;4964647;28;20027;-78
2023/05/14 05:13:34;;;;;;;28.53;20.83;;;;;;;;;;4956627;28;20073;-79
2023/05/14 05:16:00;;;;;;;25.93;22.40;;;;;;;;;;4976733;28;20117;-79
2023/05/14 05:18:26;;;;;;;32.27;22.37;;;;;;;;;;4957693;28;20376;-79
2023/05/14 05:20:51;;;;;;;32.67;22.50;;;;;;;;;;4960306;28;20055;-78
2023/05/14 05:23:17;;;;;;;27.73;21.53;;;;;;;;;;4967261;28;20070;-79
2023/05/14 05:25:43;;;;;;;26.17;20.53;;;;;;;;;;4959768;28;20244;-79
2023/05/14 05:28:09;;;;;;;29.37;22.60;;;;;;;;;;4961836;28;20027;-78
2023/05/14 05:30:35;;;;;;;28.33;21.17;;;;;;;;;;4975432;28;20045;-79
2023/05/14 05:33:02;;;;;;;29.40;21.90;;;;;;;;;;4974917;28;20032;-79
2023/05/14 05:35:28;;;;;;;29.70;23.27;;;;;;;;;;4967520;28;20031;-79
2023/05/14 05:37:54;;;;;;;33.77;22.67;;;;;;;;;;4954794;28;20046;-79
2023/05/14 05:40:20;;;;;;;26.87;22.83;;;;;;;;;;4959283;28;20035;-79
2023/05/14 05:42:46;;;;;;;29.13;22.00;;;;;;;;;;4962360;28;20126;-80
2023/05/14 05:45:14;;;;;;;27.70;22.07;;;;;;;;;;4958974;28;20050;-79
2023/05/14 05:47:40;;;;;;;26.90;20.67;;;;;;;;;;4966560;28;20038;-79
2023/05/14 05:50:06;;;;;;;23.47;19.80;;;;;;;;;;4966134;28;20027;-79
2023/05/14 05:52:32;;;;;;;31.07;21.07;;;;;;;;;;4981365;28;20027;-79
2023/05/14 05:54:58;;;;;;;25.40;20.47;;;;;;;;;;4980930;28;20045;-79
2023/05/14 05:57:27;;;;;;;25.13;20.13;;;;;;;;;;4964946;28;20031;-79
2023/05/14 05:59:52;;;;;;;26.87;20.90;;;;;;;;;;4980811;28;20465;-78
2023/05/14 06:02:19;;;;;;;22.60;19.33;;;;;;;;;;4984603;28;20034;-79
2023/05/14 06:04:45;;;;;;;28.87;21.53;;;;;;;;;;4963807;28;20035;-79
2023/05/14 06:07:13;;;;;;;29.23;23.63;;;;;;;;;;4983148;28;20031;-79
2023/05/14 06:09:39;;;;;;;31.47;24.07;;;;;;;;;;4977718;28;20031;-79
2023/05/14 06:12:05;;;;;;;27.50;22.73;;;;;;;;;;4968989;28;20041;-79
2023/05/14 06:14:31;;;;;;;25.83;20.30;;;;;;;;;;4966042;28;20043;-79
2023/05/14 06:16:57;;;;;;;27.93;22.20;;;;;;;;;;4973567;28;20042;-79
2023/05/14 06:19:23;;;;;;;25.73;21.70;;;;;;;;;;4963239;28;20585;-79
2023/05/14 06:21:49;;;;;;;24.20;19.93;;;;;;;;;;4981303;28;20118;-79
2023/05/14 06:24:15;;;;;;;31.60;22.83;;;;;;;;;;4974646;28;20023;-79
2023/05/14 06:26:41;;;;;;;31.73;22.83;;;;;;;;;;4966194;28;20027;-78
2023/05/14 06:29:07;;;;;;;29.20;23.80;;;;;;;;;;4975039;28;20653;-79
2023/05/14 06:31:33;;;;;;;29.50;21.60;;;;;;;;;;4980011;28;20042;-78
2023/05/14 06:33:59;;;;;;;34.40;22.63;;;;;;;;;;4977181;28;20027;-79
2023/05/14 06:36:28;;;;;;;29.63;25.30;;;;;;;;;;4963142;28;20059;-79
2023/05/14 06:38:54;;;;;;;30.93;24.30;;;;;;;;;;4974013;28;20465;-79
2023/05/14 06:41:20;;;;;;;31.33;27.23;;;;;;;;;;4964599;28;20024;-78
2023/05/14 06:43:46;;;;;;;35.20;28.03;;;;;;;;;;4966708;28;20039;-78
2023/05/14 06:46:12;;;;;;;31.63;25.80;;;;;;;;;;4965805;28;20034;-79
2023/05/14 06:48:38;;;;;;;31.30;26.23;;;;;;;;;;4965493;28;20912;-79
2023/05/14 06:51:04;;;;;;;31.83;26.13;;;;;;;;;;4966802;28;20023;-79
2023/05/14 06:53:30;;;;;;;37.33;28.20;;;;;;;;;;4977235;28;20060;-79
2023/05/14 06:55:56;;;;;;;38.00;29.57;;;;;;;;;;4975753;28;20035;-78
2023/05/14 06:58:22;;;;;;;40.33;27.73;;;;;;;;;;4963627;28;20033;-79
2023/05/14 07:00:48;;;;;;;32.87;26.80;;;;;;;;;;4961075;28;20035;-79
2023/05/14 07:03:14;;;;;;;39.80;28.50;;;;;;;;;;4961611;28;20415;-78
2023/05/14 07:05:40;;;;;;;36.53;29.70;;;;;;;;;;4966600;28;20066;-79
2023/05/14 07:08:06;;;;;;;36.60;26.90;;;;;;;;;;4964511;28;20043;-79
2023/05/14 07:10:32;;;;;;;32.20;24.33;;;;;;;;;;4971302;28;20110;-79
2023/05/14 07:13:02;;;;;;;32.53;25.57;;;;;;;;;;4962283;28;20065;-79
2023/05/14 07:15:28;;;;;;;27.50;22.33;;;;;;;;;;4959323;28;20475;-79
2023/05/14 07:17:56;;;;;;;30.43;25.10;;;;;;;;;;4961484;28;20056;-79
2023/05/14 07:20:22;;;;;;;30.83;24.13;;;;;;;;;;4972185;28;20034;-79
2023/05/14 07:22:49;;;;;;;33.17;26.60;;;;;;;;;;4969949;28;20073;-79
2023/05/14 07:25:15;;;;;;;35.70;25.73;;;;;;;;;;4962245;28;20031;-79
2023/05/14 07:27:41;;;;;;;31.40;23.47;;;;;;;;;;4958252;28;20023;-79
2023/05/14 07:30:07;;;;;;;27.23;20.63;;;;;;;;;;4974510;28;20482;-79
2023/05/14 07:32:33;;;;;;;26.63;20.07;;;;;;;;;;4959420;28;20072;-79
2023/05/14 07:34:59;;;;;;;24.10;21.30;;;;;;;;;;4976580;28;20360;-79
2023/05/14 07:37:25;;;;;;;23.93;19.80;;;;;;;;;;4958962;28;20053;-79
2023/05/14 07:39:52;;;;;;;19.27;16.63;;;;;;;;;;4976330;28;20463;-78
2023/05/14 07:42:18;;;;;;;21.20;17.60;;;;;;;;;;4960254;28;20122;-79
2023/05/14 07:44:44;;;;;;;17.53;15.63;;;;;;;;;;4965932;28;20376;-79
2023/05/14 07:47:10;;;;;;;18.50;15.47;;;;;;;;;;4976891;28;20020;-79
2023/05/14 07:49:36;;;;;;;14.33;11.47;;;;;;;;;;4957282;28;20046;-78
2023/05/14 07:52:02;;;;;;;16.23;10.10;;;;;;;;;;4970803;28;20027;-79
2023/05/14 07:54:31;;;;;;;11.53;9.30;;;;;;;;;;4973714;28;20062;-78
2023/05/14 07:56:57;;;;;;;14.47;12.23;;;;;;;;;;4970196;28;20031;-78
2023/05/14 07:59:23;;;;;;;13.60;11.67;;;;;;;;;;4953110;28;20046;-79
2023/05/14 08:01:49;;;;;;;14.33;11.27;;;;;;;;;;4964813;28;20085;-79
2023/05/14 08:04:15;;;;;;;16.87;13.30;;;;;;;;;;4965822;28;20050;-78
2023/05/14 08:06:43;;;;;;;18.53;14.53;;;;;;;;;;4958124;28;20027;-78
2023/05/14 08:09:12;;;;;;;24.53;16.77;;;;;;;;;;4960131;28;20143;-79
2023/05/14 08:11:38;;;;;;;18.77;14.83;;;;;;;;;;4969746;28;20027;-79
2023/05/14 08:14:04;;;;;;;18.43;13.63;;;;;;;;;;4969990;28;20026;-79
2023/05/14 08:16:30;;;;;;;22.53;14.97;;;;;;;;;;4960634;28;20123;-79
2023/05/14 08:18:56;;;;;;;15.53;12.67;;;;;;;;;;4972272;28;20057;-78
2023/05/14 08:21:22;;;;;;;16.80;14.87;;;;;;;;;;4977361;28;20031;-79
2023/05/14 08:23:48;;;;;;;21.27;14.93;;;;;;;;;;4975636;28;20134;-78
2023/05/14 08:26:16;;;;;;;15.90;13.23;;;;;;;;;;4958332;28;20050;-79
2023/05/14 08:28:42;;;;;;;15.40;13.43;;;;;;;;;;4956643;28;20116;-78
2023/05/14 08:31:08;;;;;;;17.73;12.80;;;;;;;;;;4958312;28;20060;-79
2023/05/14 08:33:34;;;;;;;15.17;11.83;;;;;;;;;;4974517;28;20034;-78
2023/05/14 08:36:00;;;;;;;15.00;13.40;;;;;;;;;;4959824;28;20039;-80
2023/05/14 08:38:29;;;;;;;15.65;13.38;;;;;;;;;;4972690;28;20031;-79
2023/05/14 08:40:59;;;;;;;18.65;14.48;;;;;;;;;;4974263;28;20047;-79
2023/05/14 08:43:27;;;;;;;14.65;11.65;;;;;;;;;;4960665;28;20050;-78
2023/05/14 08:45:58;;;;;;;17.85;11.80;;;;;;;;;;4959263;28;20042;-79
2023/05/14 08:48:26;;;;;;;13.20;10.80;;;;;;;;;;4958604;28;20093;-79
2023/05/14 08:50:52;;;;;;;13.18;10.82;;;;;;;;;;4961350;28;20035;-79
2023/05/14 08:53:18;;;;;;;15.25;9.85;;;;;;;;;;4963758;28;20034;-79
2023/05/14 08:55:45;;;;;;;14.18;10.68;;;;;;;;;;4972449;28;20035;-79
2023/05/14 08:58:11;;;;;;;11.18;9.55;;;;;;;;;;4959514;28;20031;-78
2023/05/14 09:00:37;;;;;;;11.52;9.23;;;;;;;;;;4971745;28;20051;-79
2023/05/14 09:03:06;;;;;;;13.27;9.73;;;;;;;;;;4970512;28;20038;-79
2023/05/14 09:05:32;;;;;;;12.18;10.15;;;;;;;;;;4974895;28;20031;-79
2023/05/14 09:07:58;;;;;;;14.18;10.35;;;;;;;;;;4971952;28;20039;-79
2023/05/14 09:10:24;;;;;;;17.80;8.85;;;;;;;;;;4976789;28;20042;-78
2023/05/14 09:12:50;;;;;;;11.63;8.77;;;;;;;;;;4958623;28;20035;-79
2023/05/14 09:15:17;;;;;;;12.00;8.82;;;;;;;;;;4956932;28;20031;-79
2023/05/14 09:17:43;;;;;;;12.77;8.50;;;;;;;;;;4973192;28;20035;-79
2023/05/14 09:20:11;;;;;;;12.73;9.25;;;;;;;;;;4958544;28;20034;-79
2023/05/14 09:22:38;;;;;;;15.15;9.85;;;;;;;;;;4968119;28;20059;-79
2023/05/14 09:25:04;;;;;;;16.40;9.10;;;;;;;;;;4969033;28;20506;-79
2023/05/14 09:27:31;;;;;;;11.30;8.45;;;;;;;;;;4960716;28;20122;-79
2023/05/14 09:30:04;;;;;;;11.85;8.57;;;;;;;;;;4971279;28;20027;-79
2023/05/14 09:32:35;;;;;;;12.23;8.73;;;;;;;;;;4959117;28;20452;-79
2023/05/14 09:35:08;;;;;;;12.80;8.20;;;;;;;;;;4960099;28;20769;-79
2023/05/14 09:37:38;;;;;;;12.15;9.82;;;;;;;;;;4968137;28;20045;-79
2023/05/14 09:40:10;;;;;;;13.93;9.07;;;;;;;;;;4960592;28;20043;-79
2023/05/14 09:42:36;;;;;;;9.65;8.20;;;;;;;;;;4979984;28;20043;-80
2023/05/14 09:45:05;;;;;;;10.25;7.45;;;;;;;;;;4969512;28;20423;-79
2023/05/14 09:47:31;;;;;;;10.15;7.43;;;;;;;;;;4960315;28;20035;-79
2023/05/14 09:49:57;;;;;;;9.82;8.05;;;;;;;;;;4969564;28;20019;-79
2023/05/14 09:52:26;;;;;;;8.02;6.88;;;;;;;;;;4971665;28;20034;-79
2023/05/14 09:54:52;;;;;;;8.63;7.32;;;;;;;;;;4970213;28;20043;-80
2023/05/14 09:57:19;;;;;;;6.65;5.53;;;;;;;;;;4977564;28;20464;-80
2023/05/14 09:59:45;;;;;;;8.55;5.63;;;;;;;;;;4973649;28;20055;-80
2023/05/14 10:02:36;;;;;;;10.88;6.25;;;;;;;;;;4964177;28;20043;-79
2023/05/14 10:05:05;;;;;;;8.48;4.90;;;;;;;;;;4966436;28;20046;-79
2023/05/14 10:07:34;;;;;;;7.15;4.70;;;;;;;;;;4973767;28;20188;-80
2023/05/14 10:10:06;;;;;;;6.72;5.68;;;;;;;;;;4972287;28;20027;-80
2023/05/14 10:12:36;;;;;;;6.68;5.60;;;;;;;;;;4970356;28;20110;-80
2023/05/14 10:15:03;;;;;;;8.60;4.75;;;;;;;;;;4961681;28;20026;-81
2023/05/14 10:17:31;;;;;;;8.15;5.80;;;;;;;;;;4973463;28;20144;-80
2023/05/14 10:19:58;;;;;;;7.32;6.03;;;;;;;;;;4963117;28;20417;-79
2023/05/14 10:22:26;;;;;;;9.43;6.53;;;;;;;;;;4961045;28;20227;-79
2023/05/14 10:24:53;;;;;;;8.65;6.57;;;;;;;;;;4958192;28;20063;-78
2023/05/14 10:27:20;;;;;;;9.07;6.60;;;;;;;;;;4970276;28;20118;-79
2023/05/14 10:29:52;;;;;;;11.23;7.10;;;;;;;;;;4970873;28;20031;-79
2023/05/14 10:32:19;;;;;;;10.35;7.90;;;;;;;;;;4961969;28;20050;-80
2023/05/14 10:34:46;;;;;;;11.80;7.72;;;;;;;;;;4961659;28;20059;-79
2023/05/14 10:37:21;;;;;;;11.20;8.65;;;;;;;;;;4971917;28;20143;-78
2023/05/14 10:39:50;;;;;;;12.10;9.55;;;;;;;;;;4962787;28;20031;-79
2023/05/14 10:42:19;;;;;;;14.02;8.15;;;;;;;;;;4962876;28;20031;-79
2023/05/14 10:45:06;;;;;;;14.55;9.25;;;;;;;;;;4969184;28;20488;-79
2023/05/14 10:47:32;;;;;;;14.48;10.18;;;;;;;;;;4961526;28;20611;-79
2023/05/14 10:49:59;;;;;;;27.13;11.05;;;;;;;;;;4975476;28;20027;-80
2023/05/14 10:52:25;;;;;;;15.48;10.63;;;;;;;;;;4983163;28;20042;-79
2023/05/14 10:54:58;;;;;;;12.25;10.50;;;;;;;;;;4959619;28;20082;-77
2023/05/14 10:57:26;;;;;;;15.38;10.15;;;;;;;;;;4963646;28;20031;-80
2023/05/14 10:59:54;;;;;;;14.07;10.95;;;;;;;;;;4974816;28;20039;-78
2023/05/14 11:02:20;;;;;;;16.55;10.52;;;;;;;;;;4960538;28;20105;-78
2023/05/14 11:04:59;;;;;;;16.75;10.00;;;;;;;;;;4969168;28;20483;-77
2023/05/14 11:07:32;;;;;;;14.73;9.38;;;;;;;;;;4970206;28;20028;-79
2023/05/14 11:10:08;;;;;;;17.33;7.90;;;;;;;;;;4962570;28;20031;-79
2023/05/14 11:12:35;;;;;;;9.82;7.40;;;;;;;;;;4966418;28;20035;-80
2023/05/14 11:15:02;;;;;;;10.85;8.07;;;;;;;;;;4972117;28;20038;-78
2023/05/14 11:17:29;;;;;;;10.65;8.13;;;;;;;;;;4974653;28;20035;-79
2023/05/14 11:19:58;;;;;;;10.23;7.68;;;;;;;;;;4970341;28;20050;-78
2023/05/14 11:22:24;;;;;;;10.70;7.60;;;;;;;;;;4969764;28;20034;-80
2023/05/14 11:24:53;;;;;;;10.90;8.00;;;;;;;;;;4970555;28;20039;-79
2023/05/14 11:27:20;;;;;;;14.35;6.90;;;;;;;;;;4975126;28;20475;-79
2023/05/14 11:29:47;;;;;;;15.45;6.45;;;;;;;;;;4972197;28;20122;-80
2023/05/14 11:32:13;;;;;;;10.38;6.82;;;;;;;;;;4960498;28;20433;-80
2023/05/14 11:34:40;;;;;;;11.80;7.65;;;;;;;;;;4969633;28;20057;-79
2023/05/14 11:37:09;;;;;;;9.57;6.22;;;;;;;;;;4970754;28;20036;-80
2023/05/14 11:39:39;;;;;;;11.38;6.10;;;;;;;;;;4973074;28;20035;-79
2023/05/14 11:42:10;;;;;;;15.80;6.43;;;;;;;;;;4958757;28;20035;-79
2023/05/14 11:44:39;;;;;;;10.35;6.38;;;;;;;;;;4959723;28;20031;-80
2023/05/14 11:47:05;;;;;;;11.25;6.15;;;;;;;;;;4969437;28;20031;-80
2023/05/14 11:49:31;;;;;;;9.18;6.40;;;;;;;;;;4969787;28;20381;-79
2023/05/14 11:51:57;;;;;;;10.52;6.25;;;;;;;;;;4969407;28;20075;-80
2023/05/14 11:54:31;;;;;;;12.23;7.72;;;;;;;;;;4971823;28;20191;-78
2023/05/14 11:56:57;;;;;;;12.00;6.97;;;;;;;;;;4956380;28;20103;-78
2023/05/14 11:59:30;;;;;;;7.15;5.18;;;;;;;;;;4970675;28;20033;-80
2023/05/14 12:01:57;;;;;;;6.78;5.53;;;;;;;;;;4970834;28;20034;-77
2023/05/14 12:04:23;;;;;;;9.27;6.90;;;;;;;;;;4958937;28;20027;-79
2023/05/14 12:06:49;;;;;;;9.52;6.72;;;;;;;;;;4973106;28;20031;-80
2023/05/14 12:09:16;;;;;;;8.90;6.50;;;;;;;;;;4971466;28;20042;-79
2023/05/14 12:11:44;;;;;;;8.20;6.45;;;;;;;;;;4968004;28;20457;-79
2023/05/14 12:14:19;;;;;;;10.05;6.68;;;;;;;;;;4975342;28;20030;-79
2023/05/14 12:16:46;;;;;;;8.00;5.38;;;;;;;;;;4970559;28;20031;-79
2023/05/14 12:19:14;;;;;;;8.52;5.53;;;;;;;;;;4973078;28;20040;-80
2023/05/14 12:21:42;;;;;;;8.77;5.68;;;;;;;;;;4959021;28;20039;-80
2023/05/14 12:24:12;;;;;;;11.15;5.30;;;;;;;;;;4968998;28;20019;-80
2023/05/14 12:26:38;;;;;;;8.05;4.63;;;;;;;;;;4971698;28;20034;-80
2023/05/14 12:29:07;;;;;;;6.15;4.00;;;;;;;;;;4972270;28;20122;-79
2023/05/14 12:31:34;;;;;;;5.55;4.70;;;;;;;;;;4971101;28;20094;-80
2023/05/14 12:34:02;;;;;;;8.45;5.15;;;;;;;;;;4969018;28;20038;-79
2023/05/14 12:36:28;;;;;;;5.45;4.45;;;;;;;;;;4971590;28;20034;-80
2023/05/14 12:39:01;;;;;;;6.15;4.45;;;;;;;;;;4960282;28;20464;-77
2023/05/14 12:41:27;;;;;;;5.03;2.72;;;;;;;;;;4970915;28;20027;-78
2023/05/14 12:43:53;;;;;;;2.97;2.40;;;;;;;;;;4972417;28;20094;-80
2023/05/14 12:46:19;;;;;;;6.72;2.65;;;;;;;;;;4967763;28;20027;-80
2023/05/14 12:48:45;;;;;;;4.07;2.50;;;;;;;;;;4968858;28;20810;-80
2023/05/14 12:51:11;;;;;;;12.05;4.95;;;;;;;;;;4960172;28;20624;-79
2023/05/14 12:53:37;;;;;;;6.75;4.22;;;;;;;;;;4959365;28;20086;-79
2023/05/14 12:56:03;;;;;;;9.57;4.45;;;;;;;;;;4971046;28;20398;-78
2023/05/14 12:58:29;;;;;;;7.22;4.25;;;;;;;;;;4959566;28;20038;-81
2023/05/14 13:00:55;;;;;;;10.50;4.32;;;;;;;;;;4954145;28;20058;-80
2023/05/14 13:03:21;;;;;;;10.77;3.40;;;;;;;;;;4969829;28;20031;-80
2023/05/14 13:05:47;;;;;;;6.40;4.38;;;;;;;;;;4970134;28;20070;-80
2023/05/14 13:08:16;;;;;;;5.80;3.92;;;;;;;;;;4967810;28;20516;-80
2023/05/14 13:10:43;;;;;;;4.35;3.20;;;;;;;;;;4968510;28;20031;-79
2023/05/14 13:13:09;;;;;;;5.00;3.30;;;;;;;;;;4958690;28;20515;-79
2023/05/14 13:15:35;;;;;;;4.05;3.03;;;;;;;;;;4971114;28;20019;-80
2023/05/14 13:18:01;;;;;;;3.78;2.30;;;;;;;;;;4958565;28;20031;-80
2023/05/14 13:20:29;;;;;;;5.57;2.13;;;;;;;;;;4968254;28;20033;-79
2023/05/14 13:22:55;;;;;;;3.55;2.30;;;;;;;;;;4975143;28;20444;-79
2023/05/14 13:25:21;;;;;;;4.82;3.30;;;;;;;;;;4967822;28;20045;-80
2023/05/14 13:27:49;;;;;;;7.13;4.40;;;;;;;;;;4969745;28;20359;-79
2023/05/14 13:30:17;;;;;;;7.18;4.38;;;;;;;;;;4970352;28;20047;-80
2023/05/14 13:32:43;;;;;;;6.43;4.22;;;;;;;;;;4958591;28;20114;-80
2023/05/14 13:35:09;;;;;;;6.85;4.00;;;;;;;;;;4957576;28;20035;-80
2023/05/14 13:37:36;;;;;;;6.70;3.58;;;;;;;;;;4958635;28;20118;-80
2023/05/14 13:40:03;;;;;;;7.47;4.03;;;;;;;;;;4954285;28;20055;-80
2023/05/14 13:42:29;;;;;;;7.22;3.47;;;;;;;;;;4968393;28;20035;-80
2023/05/14 13:44:55;;;;;;;7.43;3.17;;;;;;;;;;4970006;28;20066;-79
2023/05/14 13:47:21;;;;;;;5.70;3.42;;;;;;;;;;4969126;28;20039;-79
2023/05/14 13:49:47;;;;;;;4.53;2.70;;;;;;;;;;4967380;28;20038;-80
2023/05/14 13:52:13;;;;;;;4.20;2.30;;;;;;;;;;4957324;28;20031;-80
2023/05/14 13:54:39;;;;;;;3.17;2.10;;;;;;;;;;4958447;28;20042;-80
2023/05/14 13:57:05;;;;;;;2.42;1.63;;;;;;;;;;4968308;28;20059;-79
2023/05/14 13:59:31;;;;;;;9.55;2.38;;;;;;;;;;4968731;28;20452;-80
2023/05/14 14:01:57;;;;;;;2.85;2.08;;;;;;;;;;4969512;28;20092;-80
2023/05/14 14:04:27;;;;;;;12.00;1.75;;;;;;;;;;4960054;28;20035;-79
2023/05/14 14:06:53;;;;;;;4.55;2.15;;;;;;;;;;4956834;28;20038;-79
2023/05/14 14:09:19;;;;;;;6.38;2.45;;;;;;;;;;4979271;28;20059;-81
2023/05/14 14:11:45;;;;;;;3.92;2.05;;;;;;;;;;4961962;28;20109;-79
2023/05/14 14:14:11;;;;;;;5.72;2.42;;;;;;;;;;4973263;28;20023;-79
2023/05/14 14:16:40;;;;;;;5.03;2.20;;;;;;;;;;4965076;28;20023;-80
2023/05/14 14:19:06;;;;;;;12.13;2.75;;;;;;;;;;4960070;28;20035;-80
2023/05/14 14:21:32;;;;;;;6.45;2.05;;;;;;;;;;4971693;28;20032;-80